Aktuální počasí v Česku a ve světě - METAR

Seznam meteostanic umístěných nejčasteji na letišti v ČR a ve světě

Vyhledat místa podle abecedy:
A B C D E F G H I J K L M N O P Q R S T U V W X Y Z

Filtrovat:

ID stanice:
a/nebo
Název místa (fulltext):
 
Místo (ID)Naposledy načteno 
Antwerp (EBAW) 04.12.2020 04:50 UTC Zobrazit METAR
EBAW 040450Z AUTO 18014G25KT 9999 // BKN026/// OVC030/// 08/04 Q0976
Apia (NSFA) 04.12.2020 05:00 UTC Zobrazit METAR
NSFA 040500Z 11005KT 9999 FEW026 SCT150 BKN280 30/26 Q1009
Aruba I (TNCA) 04.12.2020 05:00 UTC Zobrazit METAR
TNCA 040500Z 08012KT 9999 FEW018 27/21 Q1013 NOSIG
Ascension I. (FHAW) 02.12.2020 15:50 UTC Zobrazit METAR
FHAW 021550Z 16016KT 9999 FEW015 27/20 Q1012 NOSIG RMK BLU BLU
Ashgabat (UTAA) 04.12.2020 05:00 UTC Zobrazit METAR
UTAA 040500Z 11004KT 070V160 9999 OVC013 01/M03 Q1032 R88/CLRD70 NOSIG
Asmara (HHAS) 03.02.2015 17:00 UTC Zobrazit METAR
HHAS 031700Z 27004KT CAVOK 15/06 Q1028 NOSIG
Astana (UACC) Zatím nenačteno  
Astrakhan (URWA) Zatím nenačteno  
Asuncion (SGAS) 04.12.2020 05:00 UTC Zobrazit METAR
SGAS 040500Z VRB02KT 9999 FEW033 BKN070 24/22 Q1010
Athens (LGAV) 04.12.2020 04:50 UTC Zobrazit METAR
LGAV 040450Z VRB03KT 9999 FEW015 SCT030 11/10 Q1011 NOSIG
Baghdad (ORBS) 06.06.2012 04:00 UTC  
Bagram (KQSA) 11.05.2016 15:58 UTC Zobrazit METAR
KQSA 111558Z VRB06KT 9999 BKN140 21/09 A3000 RMK AO2A SLP070 T02080091 $
Bahrain (OBBI) 04.12.2020 05:00 UTC Zobrazit METAR
OBBI 040500Z 30008KT 9999 FEW025 25/20 Q1017 NOSIG
Baku (UBBB) 04.12.2020 05:00 UTC Zobrazit METAR
UBBB 040500Z 08004KT 9999 OVC017 08/05 Q1031 R88/CLRD// NOSIG
Bamako (GABS) 04.12.2020 05:30 UTC Zobrazit METAR
GABS 040530Z 03003KT 8000 NSC 18/11 Q1014 NOSIG
Bandar Seri Begawan (WBSB) 04.12.2020 05:00 UTC Zobrazit METAR
WBSB 040500Z 21011KT 9999 SCT016 BKN300 33/23 Q1006 NOSIG
Bangkok (VTBD) 04.12.2020 05:00 UTC Zobrazit METAR
VTBD 040500Z 06005KT 310V120 9999 FEW030 28/17 Q1014 NOSIG
Bangui (FEFF) 04.12.2020 05:00 UTC Zobrazit METAR
FEFF 040500Z 26004KT 3000 BR NSC 19/17 Q1013 TEMPO 2000 BR
Banja Luka (LQBK) 04.12.2020 05:00 UTC Zobrazit METAR
LQBK 040500Z VRB02KT 4000 BR SCT007 BKN027 00/M00 Q1005 NOSIG
Banjul (GBYD) 04.12.2020 04:00 UTC Zobrazit METAR
GBYD 040400Z 00000KT CAVOK 20/19 Q1012
Barbados (TBPB) 04.12.2020 05:00 UTC Zobrazit METAR
TBPB 040500Z 07011KT 9999 FEW016 25/22 Q1013 NOSIG
Barcelona (LEBL) 04.12.2020 05:00 UTC Zobrazit METAR
LEBL 040500Z 30005KT 9999 FEW020 07/03 Q0993 NOSIG
Bari (LIBD) 04.12.2020 04:20 UTC Zobrazit METAR
LIBD 040420Z 28007KT 9999 SCT020 10/09 Q1004
Basle-Mulhouse (LFSB) 04.12.2020 05:00 UTC Zobrazit METAR
LFSB 040500Z 13008KT 9999 FEW050 SCT060 BKN080 04/M01 Q0989 NOSIG
Basse-Terre (TFFB) Zatím nenačteno  
Basseterre (TKPK) 03.12.2020 22:00 UTC Zobrazit METAR
TKPK 032200Z 04005KT 9999 FEW025 25/16 Q1014
Beijing (ZBAA) Zatím nenačteno  
Beirut (OLBA) 04.12.2020 05:00 UTC Zobrazit METAR
OLBA 040500Z 13007KT 8000 NSC 17/06 Q1018 NOSIG
Belfast (EGAA) 04.12.2020 04:50 UTC Zobrazit METAR
EGAA 040450Z 31006KT 9999 FEW030 01/M00 Q0982
Belgrade (LYBE) 04.12.2020 05:00 UTC Zobrazit METAR
LYBE 040500Z 13019KT CAVOK 05/00 Q1007 NOSIG
Belize City (MZBZ) 04.12.2020 00:00 UTC Zobrazit METAR
MZBZ 040000Z 03003KT 9999 FEW020 26/24 A2992 Q1013 NOSIG
Bergen (ENBR) 04.12.2020 04:50 UTC Zobrazit METAR
ENBR 040450Z 09005KT 050V130 9999 FEW020 BKN038 05/M03 Q0992 RMK WIND 1200FT 10012KT
Berlin (EDDT) 09.11.2020 06:50 UTC Zobrazit METAR
EDDT 090650Z 09006KT 050V120 3000 BR OVC003 06/05 Q1027
Bermuda Is (TXKF) 04.12.2020 04:55 UTC Zobrazit METAR
TXKF 040455Z 03007KT 9999 FEW032 SCT070 20/14 Q1023
Bern (LSZB) 04.12.2020 04:50 UTC Zobrazit METAR
LSZB 040450Z AUTO 11006KT 9999 BKN100 00/M01 Q0990
Billund (EKBI) 04.12.2020 04:50 UTC Zobrazit METAR
EKBI 040450Z AUTO 10014KT 9999 SCT013/// BKN099/// 02/01 Q0990
Birmingham (EGBB) 04.12.2020 04:50 UTC Zobrazit METAR
EGBB 040450Z 33013KT 9999 OVC010 03/01 Q0974
Bishkek (UAFM) Zatím nenačteno  
Bissau (GGOV) 03.12.2020 19:00 UTC Zobrazit METAR
GGOV 031900Z VRB02KT 8000 NSC 28/20 Q1012 NOSIG
Bogota (SKBO) 04.12.2020 05:00 UTC Zobrazit METAR
SKBO 040500Z VRB02KT 9999 FEW010 BKN020 12/11 Q1027 NOSIG RMK A3033
Bologna (LIPE) 04.12.2020 04:50 UTC Zobrazit METAR
LIPE 040450Z 11008KT 4000 BR SCT004 BKN006 04/03 Q1002
Bordeaux (LFBD) 04.12.2020 03:00 UTC Zobrazit METAR
LFBD 040300Z AUTO 19005KT CAVOK 06/05 Q0989 TEMPO 23015G25KT 2000 SHRA BKN015CB
Bornholm (EKRN) 04.12.2020 04:50 UTC Zobrazit METAR
EKRN 040450Z AUTO 15017KT 9999 BKN020/// 03/M01 Q0999
Brasilia (SBBR) 04.12.2020 05:00 UTC Zobrazit METAR
SBBR 040500Z VRB02KT CAVOK 21/16 Q1018
Bratislava (LZIB) 04.12.2020 05:00 UTC Zobrazit METAR
LZIB 040500Z 10008KT 2500 -DZRA BR SCT003 OVC004 01/01 Q1004 R13/290295 NOSIG
Brazzaville (FCBB) 04.12.2020 05:00 UTC Zobrazit METAR
FCBB 040500Z VRB01KT 9999 FEW010 22/21 Q1014 NOSIG
Bremen (EDDW) 04.12.2020 04:50 UTC Zobrazit METAR
EDDW 040450Z 12015KT 9999 -RA FEW032 BKN042 01/M01 Q0987 TEMPO 12015G25KT
Brest (UMBB) Zatím nenačteno  
Brest (LFRB) 03.12.2020 12:00 UTC Zobrazit METAR
LFRB 031200Z AUTO 23012KT 9999 FEW018 SCT037 BKN100 08/06 Q0990 TEMPO 24015G30KT 3000 RA BKN013 BKN020CB
Brno (LKTB) 04.12.2020 05:00 UTC Zobrazit METAR
LKTB 040500Z 13018KT 9999 OVC009 02/00 Q1001 R27/29//95 NOSIG
Předchozí 1 2 3 4 ... 9 Další
Reklama


Další české internetové stránky (nejen) o počasí najdete v katalogu TOPlist - weby o počasí nebo vyhledejte na internetu, co jste tu na 🌞 Slunečnu ⛅ zatím nenašli:
⭐ Přidat Slunečno.cz do oblíbených | 🏠 Nastavit Slunečno.cz jako HOMEPAGE

⬆️ Posunout stránku nahoru ⬆️
Reklama